Time;durP1;ratioP1;P1;durP2;ratioP2;P2;SDS_P1;SDS_P2;PMS_P1;PMS_P2;Temp;Humidity;BMP_temperature;BMP_pressure;BME280_temperature;BME280_humidity;BME280_pressure;Samples;Min_cycle;Max_cycle;Signal;HPM_P1;HPM_P2
2023/11/13 00:01:09;;;;;;;0.30;0.20;;;;;;;8.77;100.00;99643.78;5031219;28;20574;-47
2023/11/13 00:03:36;;;;;;;0.30;0.20;;;;;;;8.84;100.00;99654.16;5004518;28;20882;-47
2023/11/13 00:06:03;;;;;;;0.30;0.20;;;;;;;8.75;100.00;99638.53;5014232;28;20968;-47
2023/11/13 00:08:29;;;;;;;0.30;0.20;;;;;;;8.65;100.00;99641.56;5006868;28;20454;-46
2023/11/13 00:10:56;;;;;;;0.30;0.20;;;;;;;8.73;100.00;99639.50;5029778;28;20487;-47
2023/11/13 00:13:23;;;;;;;0.30;0.20;;;;;;;8.75;100.00;99632.38;5008755;28;20534;-47
2023/11/13 00:15:49;;;;;;;0.30;0.20;;;;;;;8.65;100.00;99638.91;5028564;28;20460;-47
2023/11/13 00:18:16;;;;;;;0.30;0.20;;;;;;;8.68;100.00;99630.84;5034299;28;20932;-47
2023/11/13 00:20:45;;;;;;;0.30;0.20;;;;;;;8.82;100.00;99633.94;5034309;28;20906;-48
2023/11/13 00:23:11;;;;;;;0.30;0.20;;;;;;;8.80;100.00;99630.47;5034282;28;20471;-47
2023/11/13 00:25:38;;;;;;;0.30;0.20;;;;;;;8.86;100.00;99628.47;5034288;28;20535;-47
2023/11/13 00:28:05;;;;;;;0.30;0.20;;;;;;;8.80;100.00;99623.38;5034399;28;20480;-47
2023/11/13 00:30:31;;;;;;;0.30;0.20;;;;;;;8.61;100.00;99620.44;5021691;28;20542;-47
2023/11/13 00:32:58;;;;;;;0.30;0.20;;;;;;;8.47;100.00;99613.84;5022079;28;20478;-47
2023/11/13 00:35:24;;;;;;;0.30;0.20;;;;;;;8.67;100.00;99607.94;5033446;28;20497;-47
2023/11/13 00:37:51;;;;;;;0.30;0.20;;;;;;;8.22;100.00;99603.97;5030755;28;20463;-47
2023/11/13 00:40:17;;;;;;;0.30;0.20;;;;;;;8.30;100.00;99601.94;5025752;28;20477;-47
2023/11/13 00:42:44;;;;;;;0.30;0.20;;;;;;;8.54;100.00;99607.44;5034007;28;20545;-47
2023/11/13 00:45:10;;;;;;;0.30;0.20;;;;;;;8.66;100.00;99608.84;5033902;28;20456;-47
2023/11/13 00:47:37;;;;;;;0.30;0.20;;;;;;;8.69;100.00;99616.69;5033950;28;20447;-47
2023/11/13 00:50:04;;;;;;;0.30;0.20;;;;;;;8.61;100.00;99614.28;5018228;28;20484;-47
2023/11/13 00:52:31;;;;;;;0.30;0.20;;;;;;;8.71;100.00;99612.19;5033538;28;20554;-47
2023/11/13 00:54:58;;;;;;;0.30;0.20;;;;;;;8.71;100.00;99617.50;5020790;28;20551;-47
2023/11/13 00:57:25;;;;;;;0.30;0.20;;;;;;;8.77;100.00;99607.59;5033843;28;20463;-47
2023/11/13 00:59:53;;;;;;;0.30;0.20;;;;;;;8.83;100.00;99604.72;5033507;28;20444;-47
2023/11/13 01:02:22;;;;;;;0.30;0.20;;;;;;;8.73;100.00;99584.75;5026793;28;21067;-47
2023/11/13 01:04:48;;;;;;;0.30;0.20;;;;;;;8.62;100.00;99576.25;5023261;28;20542;-47
2023/11/13 01:07:16;;;;;;;0.30;0.20;;;;;;;8.45;100.00;99571.50;5029513;28;20449;-47
2023/11/13 01:09:45;;;;;;;0.30;0.20;;;;;;;8.44;100.00;99577.72;5030528;28;20574;-47
2023/11/13 01:12:12;;;;;;;0.30;0.20;;;;;;;8.65;100.00;99570.03;5033431;28;20471;-47
2023/11/13 01:14:38;;;;;;;0.30;0.20;;;;;;;8.63;100.00;99578.00;5033289;28;20506;-47
2023/11/13 01:17:05;;;;;;;0.30;0.20;;;;;;;8.64;100.00;99574.47;5033295;28;20458;-47
2023/11/13 01:19:32;;;;;;;0.30;0.20;;;;;;;8.44;100.00;99575.06;5032996;28;20444;-47
2023/11/13 01:21:58;;;;;;;0.30;0.20;;;;;;;8.19;100.00;99574.06;5031097;28;20481;-47
2023/11/13 01:24:25;;;;;;;0.30;0.20;;;;;;;8.25;100.00;99579.19;5033189;28;20451;-47
2023/11/13 01:26:52;;;;;;;0.30;0.20;;;;;;;8.13;100.00;99582.19;5033285;28;20459;-47
2023/11/13 01:29:19;;;;;;;0.30;0.20;;;;;;;8.30;100.00;99580.75;5028452;28;20532;-48
2023/11/13 01:31:46;;;;;;;0.30;0.20;;;;;;;8.23;100.00;99575.72;5019477;28;21001;-47
2023/11/13 01:34:12;;;;;;;0.30;0.20;;;;;;;8.35;100.00;99579.78;5028800;28;21004;-47
2023/11/13 01:36:39;;;;;;;0.30;0.20;;;;;;;8.43;100.00;99577.78;5023015;28;20506;-47
2023/11/13 01:39:07;;;;;;;0.30;0.20;;;;;;;8.56;100.00;99582.63;5031254;28;20539;-47
2023/11/13 01:41:34;;;;;;;0.30;0.20;;;;;;;8.57;100.00;99579.06;5032925;28;20500;-47
2023/11/13 01:44:01;;;;;;;0.30;0.20;;;;;;;8.58;100.00;99570.19;5024491;28;20456;-46
2023/11/13 01:46:30;;;;;;;0.30;0.20;;;;;;;8.49;100.00;99561.69;5024186;28;20453;-47
2023/11/13 01:49:00;;;;;;;0.30;0.20;;;;;;;8.41;100.00;99574.31;5026973;28;20633;-46
2023/11/13 01:51:27;;;;;;;1.60;1.50;;;;;;;8.48;100.00;99568.75;5032339;28;21029;-47
2023/11/13 01:53:54;;;;;;;0.30;0.20;;;;;;;8.54;100.00;99557.97;5032637;28;20522;-47
2023/11/13 01:56:23;;;;;;;0.30;0.20;;;;;;;8.61;100.00;99558.63;5032666;28;20539;-47
2023/11/13 01:58:51;;;;;;;0.30;0.20;;;;;;;8.62;100.00;99555.06;5032706;28;20915;-47
2023/11/13 02:01:18;;;;;;;0.30;0.20;;;;;;;8.52;100.00;99551.88;5032230;28;20836;-47
2023/11/13 02:03:49;;;;;;;0.30;0.20;;;;;;;8.41;100.00;99561.06;5017719;28;20944;-46
2023/11/13 02:06:20;;;;;;;0.30;0.20;;;;;;;8.48;100.00;99539.63;5026962;28;20451;-46
2023/11/13 02:08:46;;;;;;;0.30;0.20;;;;;;;8.40;100.00;99536.38;5032266;28;20839;-47
2023/11/13 02:11:15;;;;;;;0.30;0.20;;;;;;;8.35;100.00;99532.97;5021884;28;20484;-47
2023/11/13 02:13:43;;;;;;;0.30;0.20;;;;;;;8.26;100.00;99523.53;5032245;28;20991;-47
2023/11/13 02:16:12;;;;;;;0.30;0.20;;;;;;;8.20;100.00;99534.31;5024126;28;20918;-47
2023/11/13 02:18:39;;;;;;;0.30;0.20;;;;;;;8.28;100.00;99521.69;5032323;28;20471;-47
2023/11/13 02:21:05;;;;;;;0.30;0.20;;;;;;;8.25;100.00;99510.34;5032062;28;20543;-46
2023/11/13 02:23:32;;;;;;;0.30;0.20;;;;;;;8.12;100.00;99509.00;5032453;28;20462;-47
2023/11/13 02:26:04;;;;;;;0.40;0.20;;;;;;;8.21;100.00;99506.03;5031962;28;20546;-47
2023/11/13 02:28:30;;;;;;;0.30;0.20;;;;;;;8.31;100.00;99503.06;5024934;28;20903;-46
2023/11/13 02:30:57;;;;;;;0.30;0.20;;;;;;;8.29;100.00;99504.03;5001541;28;20879;-47
2023/11/13 02:33:23;;;;;;;0.30;0.20;;;;;;;8.24;100.00;99508.63;5023441;28;20483;-47
2023/11/13 02:35:50;;;;;;;0.30;0.20;;;;;;;8.35;100.00;99509.16;5031203;28;20451;-47
2023/11/13 02:38:16;;;;;;;0.30;0.20;;;;;;;8.50;100.00;99513.97;5028608;28;20609;-47
2023/11/13 02:40:42;;;;;;;0.30;0.20;;;;;;;8.46;100.00;99520.28;5031775;28;20440;-47
2023/11/13 02:43:09;;;;;;;0.30;0.20;;;;;;;8.57;100.00;99527.88;5023035;28;21044;-47
2023/11/13 02:45:36;;;;;;;0.30;0.20;;;;;;;8.53;100.00;99521.81;5031507;28;20451;-47
2023/11/13 02:48:03;;;;;;;0.30;0.20;;;;;;;8.65;100.00;99507.31;5032034;28;20872;-47
2023/11/13 02:50:31;;;;;;;0.30;0.20;;;;;;;8.70;100.00;99515.97;5031913;28;20876;-47
2023/11/13 02:52:58;;;;;;;0.30;0.20;;;;;;;8.73;100.00;99505.25;5024289;28;20790;-44
2023/11/13 02:55:25;;;;;;;0.30;0.20;;;;;;;8.69;100.00;99505.41;5031655;28;20948;-44
2023/11/13 02:57:52;;;;;;;0.30;0.20;;;;;;;8.70;100.00;99507.16;5031852;28;20539;-44
2023/11/13 03:00:19;;;;;;;0.30;0.20;;;;;;;8.73;100.00;99507.03;5025387;28;20463;-47
2023/11/13 03:02:47;;;;;;;0.30;0.20;;;;;;;8.70;100.00;99512.44;5014485;28;20494;-45
2023/11/13 03:05:16;;;;;;;0.30;0.20;;;;;;;8.72;100.00;99503.53;5023294;28;20574;-45
2023/11/13 03:07:43;;;;;;;0.30;0.20;;;;;;;8.70;100.00;99499.19;5031805;28;20513;-45
2023/11/13 03:10:10;;;;;;;0.30;0.20;;;;;;;8.67;100.00;99494.00;5031556;28;20487;-45
2023/11/13 03:12:40;;;;;;;0.30;0.20;;;;;;;8.75;100.00;99505.19;5031943;28;20806;-45
2023/11/13 03:15:07;;;;;;;0.60;0.60;;;;;;;8.70;100.00;99515.97;5005961;28;20455;-45
2023/11/13 03:17:33;;;;;;;0.30;0.20;;;;;;;8.74;100.00;99508.75;5031637;28;20506;-46
2023/11/13 03:20:02;;;;;;;0.30;0.20;;;;;;;8.83;100.00;99506.69;5021097;28;20456;-45
2023/11/13 03:22:29;;;;;;;0.30;0.20;;;;;;;8.82;100.00;99514.69;5031429;28;20481;-46
2023/11/13 03:24:56;;;;;;;0.30;0.20;;;;;;;8.74;100.00;99517.56;5031571;28;20448;-44
2023/11/13 03:27:22;;;;;;;0.30;0.20;;;;;;;8.76;100.00;99514.88;5028461;28;20948;-45
2023/11/13 03:29:48;;;;;;;0.30;0.20;;;;;;;8.75;100.00;99508.72;5024830;28;20456;-46
2023/11/13 03:32:17;;;;;;;0.30;0.20;;;;;;;8.76;100.00;99512.22;5017533;28;20555;-45
2023/11/13 03:34:44;;;;;;;0.30;0.20;;;;;;;8.82;100.00;99509.38;5024308;28;20470;-45
2023/11/13 03:37:11;;;;;;;0.30;0.20;;;;;;;8.84;100.00;99515.50;5010647;28;20463;-45
2023/11/13 03:39:37;;;;;;;0.30;0.20;;;;;;;8.89;100.00;99513.53;5031331;28;20452;-44
2023/11/13 03:42:04;;;;;;;0.30;0.20;;;;;;;8.82;100.00;99512.03;5031009;28;20474;-46
2023/11/13 03:44:30;;;;;;;0.30;0.20;;;;;;;8.81;100.00;99518.25;5025829;28;20456;-45
2023/11/13 03:46:57;;;;;;;0.30;0.20;;;;;;;8.92;100.00;99518.75;5023363;28;20456;-45
2023/11/13 03:49:23;;;;;;;0.30;0.20;;;;;;;8.86;100.00;99524.25;5035320;28;20447;-45
2023/11/13 03:51:50;;;;;;;0.30;0.20;;;;;;;8.86;100.00;99516.31;5034649;28;20495;-45
2023/11/13 03:54:16;;;;;;;0.30;0.20;;;;;;;8.84;100.00;99504.91;5034776;28;20475;-45
2023/11/13 03:56:43;;;;;;;0.30;0.20;;;;;;;8.89;100.00;99503.81;5035053;28;20447;-45
2023/11/13 03:59:09;;;;;;;0.30;0.20;;;;;;;8.89;100.00;99502.94;5032024;28;20547;-45
2023/11/13 04:01:35;;;;;;;0.30;0.20;;;;;;;8.86;100.00;99493.31;5031675;28;20586;-45
2023/11/13 04:04:02;;;;;;;0.30;0.20;;;;;;;8.84;100.00;99494.28;5030833;28;20461;-45
2023/11/13 04:06:29;;;;;;;0.30;0.20;;;;;;;8.75;100.00;99492.81;5031669;28;20459;-45
2023/11/13 04:08:55;;;;;;;0.30;0.20;;;;;;;8.78;100.00;99494.53;5034549;28;20455;-45
2023/11/13 04:11:22;;;;;;;0.30;0.20;;;;;;;8.82;100.00;99497.00;5034457;28;20495;-45
2023/11/13 04:13:48;;;;;;;0.30;0.20;;;;;;;8.89;100.00;99497.63;5033781;28;20496;-46
2023/11/13 04:16:15;;;;;;;0.30;0.20;;;;;;;8.92;100.00;99504.66;5034359;28;20542;-45
2023/11/13 04:18:41;;;;;;;0.30;0.20;;;;;;;8.93;100.00;99507.25;5034501;28;20503;-45
2023/11/13 04:21:08;;;;;;;0.30;0.20;;;;;;;8.92;100.00;99509.94;5034286;28;20444;-45
2023/11/13 04:23:34;;;;;;;0.30;0.20;;;;;;;8.94;100.00;99505.47;5034388;28;20538;-45
2023/11/13 04:26:02;;;;;;;0.30;0.20;;;;;;;8.89;100.00;99508.25;5034385;28;20988;-45
2023/11/13 04:28:32;;;;;;;0.30;0.20;;;;;;;8.96;100.00;99517.72;5025694;28;20502;-46
2023/11/13 04:31:02;;;;;;;0.30;0.20;;;;;;;8.92;100.00;99510.81;5021722;28;20861;-45
2023/11/13 04:33:29;;;;;;;0.33;0.20;;;;;;;8.91;100.00;99524.97;5026175;28;20489;-45
2023/11/13 04:35:57;;;;;;;0.30;0.20;;;;;;;8.89;100.00;99529.44;5033106;28;20459;-45
2023/11/13 04:38:24;;;;;;;0.30;0.20;;;;;;;8.87;100.00;99532.16;5026372;28;20467;-45
2023/11/13 04:40:50;;;;;;;0.40;0.20;;;;;;;8.90;100.00;99533.81;5030064;28;20538;-45
2023/11/13 04:43:17;;;;;;;0.30;0.20;;;;;;;8.99;100.00;99544.13;5034013;28;20547;-45
2023/11/13 04:45:44;;;;;;;0.30;0.20;;;;;;;8.85;100.00;99551.69;5033791;28;20451;-46
2023/11/13 04:48:10;;;;;;;0.30;0.20;;;;;;;8.95;100.00;99545.16;5034020;28;20447;-44
2023/11/13 04:50:36;;;;;;;0.30;0.20;;;;;;;8.88;100.00;99551.56;5033518;28;20483;-45
2023/11/13 04:53:03;;;;;;;0.30;0.20;;;;;;;8.87;100.00;99541.88;5033774;28;21004;-44
2023/11/13 04:55:30;;;;;;;0.30;0.20;;;;;;;8.86;100.00;99535.72;5015373;28;20456;-44
2023/11/13 04:57:57;;;;;;;0.30;0.20;;;;;;;8.74;100.00;99524.66;5027076;28;20455;-44
2023/11/13 05:00:23;;;;;;;0.30;0.20;;;;;;;8.86;100.00;99518.94;5033696;28;20459;-47
2023/11/13 05:02:50;;;;;;;0.30;0.20;;;;;;;8.80;100.00;99513.88;5023872;28;20477;-44
2023/11/13 05:05:16;;;;;;;0.30;0.20;;;;;;;8.84;100.00;99516.34;5025921;28;20451;-45
2023/11/13 05:07:43;;;;;;;0.30;0.20;;;;;;;8.72;100.00;99505.31;5020450;28;20830;-47
2023/11/13 05:10:10;;;;;;;0.30;0.20;;;;;;;8.76;100.00;99501.63;5033648;28;20459;-45
2023/11/13 05:12:38;;;;;;;0.30;0.20;;;;;;;8.77;100.00;99511.31;5015906;28;21068;-45
2023/11/13 05:15:05;;;;;;;0.30;0.20;;;;;;;8.72;100.00;99511.47;5015593;28;20459;-45
2023/11/13 05:17:31;;;;;;;0.30;0.20;;;;;;;8.81;100.00;99519.13;5027106;28;20452;-45
2023/11/13 05:20:00;;;;;;;0.30;0.20;;;;;;;8.85;100.00;99522.53;5026499;28;20440;-44
2023/11/13 05:22:26;;;;;;;0.30;0.20;;;;;;;8.89;100.00;99522.34;5033114;28;20772;-44
2023/11/13 05:24:53;;;;;;;0.30;0.20;;;;;;;8.88;100.00;99519.75;5033106;28;20967;-44
2023/11/13 05:27:20;;;;;;;0.30;0.20;;;;;;;8.89;100.00;99518.84;5019217;28;20456;-45
2023/11/13 05:29:46;;;;;;;0.30;0.20;;;;;;;8.92;100.00;99533.78;5025125;28;20454;-45
2023/11/13 05:32:12;;;;;;;0.30;0.20;;;;;;;8.78;100.00;99544.88;5012588;28;20648;-45
2023/11/13 05:34:40;;;;;;;0.30;0.20;;;;;;;8.74;100.00;99552.03;5022061;28;20462;-45
2023/11/13 05:37:06;;;;;;;0.30;0.20;;;;;;;8.76;100.00;99565.22;5029601;28;20457;-45
2023/11/13 05:39:33;;;;;;;0.30;0.20;;;;;;;8.83;100.00;99574.72;5033439;28;20459;-45
2023/11/13 05:42:00;;;;;;;0.30;0.20;;;;;;;8.88;100.00;99556.88;5032642;28;20467;-45
2023/11/13 05:44:26;;;;;;;0.30;0.20;;;;;;;9.00;100.00;99563.53;5032691;28;20936;-45
2023/11/13 05:46:53;;;;;;;0.30;0.20;;;;;;;8.84;100.00;99565.84;5032412;28;20482;-45
2023/11/13 05:49:20;;;;;;;0.30;0.20;;;;;;;8.96;100.00;99565.44;5023820;28;20456;-45
2023/11/13 05:51:46;;;;;;;0.30;0.20;;;;;;;8.98;100.00;99562.72;5015017;28;20503;-45
2023/11/13 05:54:13;;;;;;;0.30;0.20;;;;;;;8.82;100.00;99568.53;5032930;28;20450;-45
2023/11/13 05:56:39;;;;;;;0.30;0.20;;;;;;;8.88;100.00;99578.06;5032378;28;20966;-44
2023/11/13 05:59:06;;;;;;;0.30;0.20;;;;;;;8.83;100.00;99578.22;5032624;28;20450;-45
2023/11/13 06:01:33;;;;;;;0.30;0.20;;;;;;;8.83;100.00;99564.97;5032320;28;20464;-45
2023/11/13 06:03:59;;;;;;;0.30;0.20;;;;;;;8.81;100.00;99563.31;5023861;28;20567;-45
2023/11/13 06:06:26;;;;;;;0.30;0.20;;;;;;;8.87;100.00;99568.38;5028241;28;20448;-45
2023/11/13 06:08:52;;;;;;;0.30;0.20;;;;;;;8.90;100.00;99562.97;5032418;28;20459;-45
2023/11/13 06:11:19;;;;;;;0.30;0.20;;;;;;;8.88;100.00;99562.16;5031834;28;20996;-46
2023/11/13 06:13:46;;;;;;;0.30;0.20;;;;;;;8.90;100.00;99560.31;5031839;28;20484;-45
2023/11/13 06:16:13;;;;;;;0.30;0.20;;;;;;;8.71;100.00;99556.56;5017376;28;20462;-45
2023/11/13 06:18:53;;;;;;;0.30;0.30;;;;;;;8.65;100.00;99547.06;5027351;28;20455;-50
2023/11/13 06:21:19;;;;;;;0.30;0.20;;;;;;;8.56;100.00;99548.19;5024907;28;20468;-45
2023/11/13 06:23:46;;;;;;;0.30;0.20;;;;;;;8.67;100.00;99558.47;5015675;28;20450;-45
2023/11/13 06:26:12;;;;;;;0.30;0.20;;;;;;;8.64;100.00;99547.97;5031404;28;20448;-45
2023/11/13 06:28:40;;;;;;;0.30;0.20;;;;;;;8.66;100.00;99555.88;5028443;28;20538;-46
2023/11/13 06:31:09;;;;;;;0.30;0.20;;;;;;;8.70;100.00;99561.00;5019219;28;20562;-45
2023/11/13 06:33:37;;;;;;;0.30;0.20;;;;;;;8.68;100.00;99567.28;5015631;28;20570;-45
2023/11/13 06:36:10;;;;;;;0.30;0.20;;;;;;;8.86;100.00;99570.16;5019501;28;20484;-45
2023/11/13 06:38:37;;;;;;;0.30;0.20;;;;;;;8.94;100.00;99577.88;5019365;28;20546;-45
2023/11/13 06:41:04;;;;;;;0.30;0.20;;;;;;;8.90;100.00;99578.88;5018735;28;20949;-47
2023/11/13 06:43:32;;;;;;;0.30;0.20;;;;;;;8.87;100.00;99578.97;5031506;28;20868;-45
2023/11/13 06:45:59;;;;;;;0.30;0.20;;;;;;;8.83;100.00;99587.97;5031999;28;20546;-46
2023/11/13 06:48:26;;;;;;;0.30;0.20;;;;;;;8.75;100.00;99585.53;5031554;28;20451;-45
2023/11/13 06:50:52;;;;;;;0.30;0.20;;;;;;;8.82;100.00;99578.28;5031745;28;20547;-45
2023/11/13 06:53:19;;;;;;;0.30;0.20;;;;;;;8.67;100.00;99576.13;5031520;28;20462;-46
2023/11/13 06:55:45;;;;;;;0.30;0.20;;;;;;;8.70;100.00;99571.59;5031505;28;20534;-46
2023/11/13 06:58:12;;;;;;;0.30;0.20;;;;;;;8.65;100.00;99564.72;5031591;28;20450;-46
2023/11/13 07:00:38;;;;;;;0.30;0.20;;;;;;;8.41;100.00;99564.59;5031661;28;20960;-45
2023/11/13 07:03:05;;;;;;;0.30;0.20;;;;;;;8.52;100.00;99557.16;5031571;28;20539;-46
2023/11/13 07:05:31;;;;;;;0.30;0.20;;;;;;;8.30;100.00;99556.94;5024206;28;20455;-46
2023/11/13 07:07:58;;;;;;;0.30;0.20;;;;;;;8.32;100.00;99565.69;5031548;28;20451;-46
2023/11/13 07:10:26;;;;;;;0.30;0.20;;;;;;;8.42;100.00;99570.75;5031516;28;20459;-49
2023/11/13 07:12:53;;;;;;;0.30;0.20;;;;;;;8.42;100.00;99549.56;5031521;28;20496;-46
2023/11/13 07:15:20;;;;;;;0.30;0.20;;;;;;;8.32;100.00;99541.00;5031708;28;20494;-46
2023/11/13 07:17:46;;;;;;;0.30;0.20;;;;;;;8.27;100.00;99540.28;5033862;28;20443;-47
2023/11/13 07:20:13;;;;;;;0.30;0.20;;;;;;;8.26;100.00;99539.44;5035561;28;20830;-45
2023/11/13 07:22:40;;;;;;;0.30;0.20;;;;;;;8.36;100.00;99534.75;5035345;28;20901;-47
2023/11/13 07:25:07;;;;;;;0.30;0.20;;;;;;;8.37;100.00;99536.47;5035636;28;20462;-46
2023/11/13 07:27:33;;;;;;;0.30;0.20;;;;;;;8.44;100.00;99542.44;5035312;28;20835;-48
2023/11/13 07:30:01;;;;;;;0.30;0.20;;;;;;;8.55;100.00;99542.97;5028724;28;20870;-46
2023/11/13 07:32:27;;;;;;;0.30;0.20;;;;;;;8.63;100.00;99537.38;5021708;28;21010;-46
2023/11/13 07:34:54;;;;;;;0.30;0.20;;;;;;;8.86;100.00;99529.56;5035077;28;20455;-46
2023/11/13 07:37:23;;;;;;;0.30;0.20;;;;;;;8.76;100.00;99536.94;5031831;28;20459;-46
2023/11/13 07:39:53;;;;;;;0.30;0.20;;;;;;;8.88;100.00;99528.56;5035438;28;20456;-46
2023/11/13 07:42:20;;;;;;;0.30;0.20;;;;;;;8.90;100.00;99517.91;5035373;28;20562;-44
2023/11/13 07:44:50;;;;;;;0.30;0.20;;;;;;;9.00;100.00;99519.34;5035197;28;20454;-44
2023/11/13 07:47:18;;;;;;;0.30;0.20;;;;;;;9.29;100.00;99533.38;5034982;28;20451;-45
2023/11/13 07:49:45;;;;;;;0.30;0.20;;;;;;;9.29;100.00;99538.66;5034867;28;20451;-45
2023/11/13 07:52:13;;;;;;;0.30;0.20;;;;;;;9.38;100.00;99523.31;5034498;28;20499;-44
2023/11/13 07:54:40;;;;;;;0.30;0.20;;;;;;;9.27;100.00;99519.28;5035057;28;20506;-45
2023/11/13 07:57:09;;;;;;;0.30;0.20;;;;;;;9.48;100.00;99537.97;5034852;28;20883;-45
2023/11/13 07:59:37;;;;;;;0.30;0.20;;;;;;;9.52;100.00;99525.44;5034755;28;20509;-46
2023/11/13 08:02:04;;;;;;;0.30;0.20;;;;;;;9.57;100.00;99512.00;5034456;28;21076;-45
2023/11/13 08:04:31;;;;;;;0.30;0.20;;;;;;;9.54;100.00;99507.69;5026643;28;20510;-49
2023/11/13 08:06:58;;;;;;;0.30;0.20;;;;;;;9.65;100.00;99504.63;5008797;28;20801;-45
2023/11/13 08:09:35;;;;;;;0.30;0.20;;;;;;;9.71;100.00;99501.75;5034670;28;20479;-46
2023/11/13 08:12:01;;;;;;;0.30;0.20;;;;;;;9.73;100.00;99510.50;5034662;28;20495;-45
2023/11/13 08:14:28;;;;;;;0.30;0.20;;;;;;;9.67;100.00;99508.09;5034679;28;20485;-47
2023/11/13 08:16:55;;;;;;;0.30;0.20;;;;;;;9.83;100.00;99521.66;5034879;28;20881;-47
2023/11/13 08:19:22;;;;;;;0.30;0.20;;;;;;;9.90;100.00;99531.13;5034530;28;20474;-46
2023/11/13 08:21:48;;;;;;;0.30;0.20;;;;;;;9.78;100.00;99516.53;5034524;28;20471;-46
2023/11/13 08:24:19;;;;;;;0.30;0.20;;;;;;;9.81;100.00;99513.75;5034236;28;20823;-46
2023/11/13 08:26:46;;;;;;;0.30;0.20;;;;;;;9.60;100.00;99478.28;5034516;28;20444;-46
2023/11/13 08:29:16;;;;;;;0.30;0.20;;;;;;;9.94;100.00;99493.78;5029811;28;20539;-46
2023/11/13 08:31:42;;;;;;;0.40;0.40;;;;;;;9.78;100.00;99466.09;5020694;28;20502;-47
2023/11/13 08:34:09;;;;;;;0.30;0.20;;;;;;;9.80;100.00;99461.59;5030891;28;20447;-46
2023/11/13 08:36:36;;;;;;;0.30;0.20;;;;;;;9.89;100.00;99481.63;5033436;28;20452;-46
2023/11/13 08:39:02;;;;;;;0.30;0.20;;;;;;;10.12;100.00;99462.97;5031543;28;20485;-46
2023/11/13 08:41:32;;;;;;;0.30;0.20;;;;;;;10.05;100.00;99441.13;5034005;28;20842;-48
2023/11/13 08:44:00;;;;;;;0.30;0.20;;;;;;;9.84;100.00;99430.47;5033611;28;20479;-46
2023/11/13 08:46:27;;;;;;;0.30;0.20;;;;;;;9.99;100.00;99435.19;5034224;28;20483;-46
2023/11/13 08:48:54;;;;;;;0.30;0.20;;;;;;;10.01;100.00;99452.81;5033793;28;20960;-46
2023/11/13 08:51:24;;;;;;;0.30;0.20;;;;;;;10.00;100.00;99460.78;5034177;28;20580;-46
2023/11/13 08:53:50;;;;;;;0.30;0.20;;;;;;;10.09;100.00;99447.16;5033787;28;20665;-47
2023/11/13 08:56:17;;;;;;;0.30;0.20;;;;;;;9.96;100.00;99460.06;5034213;28;20542;-47
2023/11/13 08:58:43;;;;;;;0.30;0.20;;;;;;;9.91;100.00;99470.00;5033455;28;20473;-47
2023/11/13 09:01:11;;;;;;;0.30;0.20;;;;;;;9.79;100.00;99462.53;5033412;28;20511;-47
2023/11/13 09:03:39;;;;;;;0.30;0.20;;;;;;;9.71;100.00;99464.59;5033030;28;20882;-47
2023/11/13 09:06:13;;;;;;;0.30;0.20;;;;;;;9.79;100.00;99466.03;5026814;28;20454;-47
2023/11/13 09:08:42;;;;;;;0.30;0.20;;;;;;;9.72;100.00;99464.53;5008687;28;20921;-47
2023/11/13 09:11:09;;;;;;;0.30;0.20;;;;;;;9.67;100.00;99453.25;5033389;28;20491;-48
2023/11/13 09:13:37;;;;;;;0.30;0.20;;;;;;;9.69;100.00;99451.38;5033909;28;20642;-47
2023/11/13 09:16:05;;;;;;;0.30;0.20;;;;;;;9.70;100.00;99439.84;5033348;28;20486;-47
2023/11/13 09:18:32;;;;;;;0.30;0.20;;;;;;;9.77;100.00;99446.66;5033422;28;20447;-48
2023/11/13 09:20:59;;;;;;;0.30;0.20;;;;;;;9.79;100.00;99447.47;5033176;28;20483;-48
2023/11/13 09:23:26;;;;;;;0.30;0.20;;;;;;;9.80;100.00;99448.31;5033280;28;20494;-47
2023/11/13 09:25:53;;;;;;;0.30;0.20;;;;;;;9.86;100.00;99456.03;5032955;28;20447;-47
2023/11/13 09:28:19;;;;;;;0.30;0.20;;;;;;;9.90;100.00;99465.63;5032941;28;20986;-47
2023/11/13 09:30:46;;;;;;;0.30;0.20;;;;;;;9.89;100.00;99450.63;5023363;28;20528;-48
2023/11/13 09:33:12;;;;;;;0.30;0.20;;;;;;;9.90;100.00;99448.84;5022576;28;20578;-47
2023/11/13 09:35:39;;;;;;;0.30;0.20;;;;;;;10.11;100.00;99453.28;5031916;28;20487;-48
2023/11/13 09:38:09;;;;;;;0.30;0.20;;;;;;;10.36;100.00;99447.88;5029232;28;20462;-47
2023/11/13 09:40:35;;;;;;;0.30;0.20;;;;;;;10.19;100.00;99427.28;5032776;28;20466;-47
2023/11/13 09:43:14;;;;;;;0.30;0.20;;;;;;;10.07;100.00;99420.69;5032786;28;20547;-47
2023/11/13 09:45:46;;;;;;;0.30;0.20;;;;;;;10.00;100.00;99402.41;5032894;28;20443;-47
2023/11/13 09:48:18;;;;;;;0.30;0.20;;;;;;;9.89;100.00;99394.88;5032721;28;20452;-47
2023/11/13 09:50:45;;;;;;;0.30;0.20;;;;;;;9.90;100.00;99388.66;5032592;28;20467;-47
2023/11/13 09:53:16;;;;;;;0.30;0.20;;;;;;;9.99;100.00;99384.75;5032239;28;20579;-47
2023/11/13 09:55:46;;;;;;;0.30;0.20;;;;;;;10.06;100.00;99389.75;5032824;28;20452;-47
2023/11/13 09:58:12;;;;;;;0.30;0.20;;;;;;;10.13;100.00;99381.50;5032450;28;20452;-50
2023/11/13 10:00:43;;;;;;;0.50;0.50;;;;;;;10.37;100.00;99378.72;5032527;28;20958;-49
2023/11/13 10:03:09;;;;;;;1.37;1.37;;;;;;;10.21;100.00;99371.44;5032201;28;20561;-49
2023/11/13 10:05:39;;;;;;;0.30;0.20;;;;;;;10.24;100.00;99361.59;5025165;28;20543;-49
2023/11/13 10:08:05;;;;;;;0.30;0.20;;;;;;;10.32;100.00;99361.28;5032480;28;20447;-49
2023/11/13 10:10:32;;;;;;;0.30;0.20;;;;;;;10.40;100.00;99356.47;5032308;28;20447;-50
2023/11/13 10:13:01;;;;;;;0.30;0.20;;;;;;;10.47;100.00;99359.75;5032009;28;20510;-50
2023/11/13 10:15:30;;;;;;;0.30;0.20;;;;;;;10.52;100.00;99352.44;5032210;28;20593;-50
2023/11/13 10:17:58;;;;;;;0.30;0.30;;;;;;;10.61;100.00;99355.56;5032287;28;20455;-50
2023/11/13 10:20:26;;;;;;;0.30;0.20;;;;;;;10.63;100.00;99351.03;5032293;28;20456;-49
2023/11/13 10:23:06;;;;;;;0.30;0.20;;;;;;;10.61;100.00;99346.72;5031877;28;20467;-50
2023/11/13 10:25:46;;;;;;;0.30;0.20;;;;;;;10.71;100.00;99336.56;5031967;28;20444;-48
2023/11/13 10:28:14;;;;;;;0.30;0.20;;;;;;;10.93;100.00;99327.53;5031939;28;20807;-49
2023/11/13 10:30:55;;;;;;;0.30;0.20;;;;;;;10.89;100.00;99323.31;5022913;28;20586;-49
2023/11/13 10:33:22;;;;;;;0.80;0.80;;;;;;;10.97;100.00;99326.50;5023132;28;20502;-49
2023/11/13 10:35:50;;;;;;;0.30;0.20;;;;;;;10.91;100.00;99318.78;5031695;28;20538;-50
2023/11/13 10:38:20;;;;;;;0.30;0.20;;;;;;;10.96;100.00;99318.56;5028654;28;20460;-49
2023/11/13 10:40:58;;;;;;;0.30;0.20;;;;;;;10.91;100.00;99309.94;5031687;28;20462;-50
2023/11/13 10:43:32;;;;;;;0.30;0.20;;;;;;;11.00;100.00;99308.66;5031546;28;20501;-49
2023/11/13 10:46:00;;;;;;;0.30;0.20;;;;;;;11.18;100.00;99298.03;5031802;28;20448;-49
2023/11/13 10:48:41;;;;;;;0.30;0.20;;;;;;;11.16;100.00;99291.91;5031693;28;20833;-50
2023/11/13 10:51:09;;;;;;;0.30;0.20;;;;;;;10.98;100.00;99290.13;5031225;28;20451;-49
2023/11/13 10:53:42;;;;;;;0.30;0.20;;;;;;;10.83;100.00;99290.84;5031334;28;20907;-49
2023/11/13 10:56:10;;;;;;;0.30;0.20;;;;;;;10.96;100.00;99278.66;5031862;28;20450;-49
2023/11/13 10:58:37;;;;;;;0.30;0.20;;;;;;;10.92;100.00;99280.63;5031421;28;20937;-49
2023/11/13 11:01:05;;;;;;;0.30;0.20;;;;;;;10.77;100.00;99281.31;5031590;28;20475;-49
2023/11/13 11:03:37;;;;;;;0.30;0.20;;;;;;;10.77;100.00;99270.69;5031312;28;20467;-49
2023/11/13 11:06:11;;;;;;;0.30;0.20;;;;;;;10.61;100.00;99270.53;5017218;28;20811;-50
2023/11/13 11:08:38;;;;;;;0.30;0.20;;;;;;;10.68;100.00;99255.16;5031666;28;20488;-49
2023/11/13 11:11:08;;;;;;;0.30;0.20;;;;;;;10.60;100.00;99244.03;5030998;28;20529;-48
2023/11/13 11:13:41;;;;;;;0.30;0.20;;;;;;;10.74;100.00;99235.44;5019324;28;20507;-50
2023/11/13 11:16:13;;;;;;;0.30;0.20;;;;;;;10.80;100.00;99232.47;5031230;28;20447;-49
2023/11/13 11:18:44;;;;;;;0.30;0.20;;;;;;;10.77;100.00;99235.28;5031444;28;20499;-50
2023/11/13 11:21:27;;;;;;;0.30;0.20;;;;;;;10.78;100.00;99226.38;5031194;28;20475;-50
2023/11/13 11:24:20;;;;;;;0.30;0.20;;;;;;;10.84;100.00;99211.00;5031430;28;20444;-49
2023/11/13 11:26:58;;;;;;;0.30;0.20;;;;;;;10.86;100.00;99187.88;4991392;28;20534;-50
2023/11/13 11:29:33;;;;;;;0.30;0.20;;;;;;;11.06;100.00;99186.03;5026389;28;20440;-50
2023/11/13 11:32:15;;;;;;;0.30;0.20;;;;;;;11.06;100.00;99181.56;5017865;28;20531;-49
2023/11/13 11:34:43;;;;;;;0.30;0.20;;;;;;;11.21;100.00;99179.97;5010194;28;20443;-50